Time;durP1;ratioP1;P1;durP2;ratioP2;P2;SDS_P1;SDS_P2;PMS_P1;PMS_P2;Temp;Humidity;BMP_temperature;BMP_pressure;BME280_temperature;BME280_humidity;BME280_pressure;Samples;Min_cycle;Max_cycle;Signal;HPM_P1;HPM_P2
2023/05/12 00:01:16;;;;;;;20.60;14.57;;;12.80;99.90;;;;;;6239454;22;20238;-70
2023/05/12 00:03:44;;;;;;;19.88;14.15;;;12.70;99.90;;;;;;6244132;22;20194;-70
2023/05/12 00:06:11;;;;;;;20.83;14.70;;;12.70;99.90;;;;;;6253200;22;20196;-70
2023/05/12 00:08:38;;;;;;;24.27;14.77;;;12.50;99.90;;;;;;6246393;22;20192;-70
2023/05/12 00:11:04;;;;;;;21.85;15.05;;;12.70;99.90;;;;;;6237467;22;20639;-70
2023/05/12 00:13:31;;;;;;;22.25;15.50;;;12.70;99.90;;;;;;6236070;22;20172;-70
2023/05/12 00:15:58;;;;;;;21.83;15.70;;;12.70;99.90;;;;;;6253525;22;20183;-70
2023/05/12 00:18:27;;;;;;;19.98;14.45;;;12.80;99.90;;;;;;6240180;22;20251;-70
2023/05/12 00:20:55;;;;;;;19.88;13.82;;;12.80;99.90;;;;;;6253011;22;20255;-70
2023/05/12 00:23:22;;;;;;;19.52;13.30;;;12.70;99.90;;;;;;6248343;22;20230;-70
2023/05/12 00:25:49;;;;;;;18.00;12.85;;;12.70;99.90;;;;;;6235994;22;20176;-70
2023/05/12 00:28:17;;;;;;;18.20;12.20;;;12.70;99.90;;;;;;6241364;22;20179;-70
2023/05/12 00:30:44;;;;;;;13.02;10.77;;;12.60;99.90;;;;;;6250085;22;20268;-70
2023/05/12 00:33:10;;;;;;;13.95;10.95;;;12.60;99.90;;;;;;6252551;22;20179;-70
2023/05/12 00:35:37;;;;;;;13.63;10.90;;;12.50;99.90;;;;;;6243878;22;20765;-70
2023/05/12 00:38:05;;;;;;;12.55;10.23;;;12.60;99.90;;;;;;6252127;22;20173;-70
2023/05/12 00:40:32;;;;;;;12.48;10.52;;;12.50;99.90;;;;;;6243426;22;20172;-70
2023/05/12 00:42:59;;;;;;;12.95;10.18;;;12.50;99.90;;;;;;6238331;22;20582;-70
2023/05/12 00:45:28;;;;;;;12.70;9.75;;;12.40;99.90;;;;;;6244643;22;20403;-70
2023/05/12 00:47:55;;;;;;;10.13;8.90;;;12.30;99.90;;;;;;6249536;22;20265;-71
2023/05/12 00:50:22;;;;;;;10.48;9.13;;;12.30;99.90;;;;;;6244362;22;20650;-70
2023/05/12 00:52:49;;;;;;;9.43;8.38;;;12.20;99.90;;;;;;6246124;22;20183;-70
2023/05/12 00:55:18;;;;;;;8.57;7.60;;;12.10;99.90;;;;;;6248870;22;20176;-70
2023/05/12 00:57:45;;;;;;;11.18;8.57;;;12.00;99.90;;;;;;6234908;22;20203;-70
2023/05/12 01:00:13;;;;;;;10.98;9.00;;;12.00;99.90;;;;;;6238733;22;20176;-70
2023/05/12 01:02:40;;;;;;;11.73;10.00;;;12.10;99.90;;;;;;6247307;22;20422;-70
2023/05/12 01:05:08;;;;;;;15.30;10.13;;;12.10;99.90;;;;;;6235665;22;20178;-70
2023/05/12 01:07:36;;;;;;;12.25;9.95;;;12.20;99.90;;;;;;6251229;22;20238;-70
2023/05/12 01:10:03;;;;;;;13.63;10.73;;;12.20;99.90;;;;;;6246186;22;20511;-70
2023/05/12 01:12:32;;;;;;;12.68;9.70;;;12.20;99.90;;;;;;6235559;22;20206;-70
2023/05/12 01:14:59;;;;;;;13.25;9.90;;;12.10;99.90;;;;;;6241587;22;20171;-70
2023/05/12 01:17:31;;;;;;;11.68;10.07;;;12.10;99.90;;;;;;6251277;22;20172;-70
2023/05/12 01:20:01;;;;;;;13.95;10.30;;;12.10;99.90;;;;;;6244042;22;20180;-70
2023/05/12 01:22:30;;;;;;;16.55;11.30;;;12.00;99.90;;;;;;6246668;22;20231;-70
2023/05/12 01:24:59;;;;;;;17.88;12.40;;;12.10;99.90;;;;;;6250739;22;20176;-70
2023/05/12 01:27:29;;;;;;;13.25;10.68;;;12.10;99.90;;;;;;6232861;22;20729;-70
2023/05/12 01:29:58;;;;;;;12.25;10.95;;;12.10;99.90;;;;;;6244387;22;20183;-70
2023/05/12 01:32:25;;;;;;;14.48;11.35;;;12.10;99.90;;;;;;6249955;22;20176;-70
2023/05/12 01:34:52;;;;;;;15.63;11.38;;;12.00;99.90;;;;;;6251893;22;20187;-70
2023/05/12 01:37:19;;;;;;;15.13;11.00;;;12.00;99.90;;;;;;6238556;22;20172;-70
2023/05/12 01:39:46;;;;;;;14.98;12.23;;;12.10;99.90;;;;;;6253309;22;20172;-70
2023/05/12 01:42:13;;;;;;;15.38;12.13;;;12.10;99.90;;;;;;6223178;22;20180;-70
2023/05/12 01:44:41;;;;;;;15.82;11.90;;;12.00;99.90;;;;;;6253562;22;20178;-69
2023/05/12 01:47:08;;;;;;;17.35;12.18;;;12.10;99.90;;;;;;6237937;22;20207;-70
2023/05/12 01:49:35;;;;;;;19.23;14.02;;;12.10;99.90;;;;;;6253429;22;20206;-70
2023/05/12 01:52:02;;;;;;;17.85;14.15;;;12.10;99.90;;;;;;6244660;22;20230;-70
2023/05/12 01:54:29;;;;;;;18.63;13.80;;;12.10;99.90;;;;;;6245141;22;20509;-70
2023/05/12 01:56:56;;;;;;;19.70;14.20;;;12.10;99.90;;;;;;6242153;22;20224;-70
2023/05/12 01:59:23;;;;;;;16.52;13.95;;;12.00;99.90;;;;;;6234578;22;20176;-70
2023/05/12 02:01:51;;;;;;;20.15;15.05;;;12.10;99.90;;;;;;6242824;22;20172;-70
2023/05/12 02:04:17;;;;;;;18.20;14.05;;;12.10;99.90;;;;;;6248598;22;20172;-70
2023/05/12 02:06:44;;;;;;;22.08;15.13;;;12.10;99.90;;;;;;6231640;22;20222;-70
2023/05/12 02:09:11;;;;;;;21.55;15.20;;;12.10;99.90;;;;;;6244863;22;20196;-70
2023/05/12 02:11:38;;;;;;;20.15;14.35;;;12.20;99.90;;;;;;6241589;22;20179;-70
2023/05/12 02:14:05;;;;;;;22.40;15.40;;;12.10;99.90;;;;;;6226001;22;20176;-70
2023/05/12 02:16:32;;;;;;;24.35;16.13;;;12.20;99.90;;;;;;6239043;22;20195;-70
2023/05/12 02:19:00;;;;;;;23.10;16.50;;;12.10;99.90;;;;;;6251194;22;20172;-70
2023/05/12 02:21:27;;;;;;;23.25;17.02;;;12.10;99.90;;;;;;6242016;22;20255;-70
2023/05/12 02:23:55;;;;;;;23.17;16.23;;;12.10;99.90;;;;;;6216821;23;20173;-70
2023/05/12 02:26:21;;;;;;;21.42;15.85;;;12.20;99.90;;;;;;6207835;23;20179;-70
2023/05/12 02:28:48;;;;;;;21.83;15.98;;;12.20;99.90;;;;;;6208965;23;20217;-70
2023/05/12 02:31:15;;;;;;;22.70;15.70;;;12.10;99.90;;;;;;6195201;23;20195;-70
2023/05/12 02:33:42;;;;;;;19.65;15.93;;;12.20;99.90;;;;;;6215922;23;20177;-70
2023/05/12 02:36:11;;;;;;;22.67;16.42;;;12.10;99.90;;;;;;6218015;23;20184;-70
2023/05/12 02:38:38;;;;;;;21.65;15.68;;;12.00;99.90;;;;;;6211167;23;20188;-70
2023/05/12 02:41:05;;;;;;;20.55;15.65;;;12.10;99.90;;;;;;6210069;23;20204;-69
2023/05/12 02:43:32;;;;;;;21.40;15.90;;;12.10;99.90;;;;;;6207891;23;20224;-70
2023/05/12 02:45:59;;;;;;;20.15;15.30;;;12.00;99.90;;;;;;6199593;23;20181;-70
2023/05/12 02:48:26;;;;;;;25.85;15.73;;;12.00;99.90;;;;;;6209533;23;20212;-70
2023/05/12 02:50:52;;;;;;;22.35;14.95;;;12.00;99.90;;;;;;6218888;23;20177;-70
2023/05/12 02:53:20;;;;;;;22.50;15.52;;;12.00;99.90;;;;;;6209873;23;20177;-70
2023/05/12 02:55:47;;;;;;;20.40;14.50;;;12.00;99.90;;;;;;6220636;23;20177;-70
2023/05/12 02:58:14;;;;;;;22.33;15.07;;;12.00;99.90;;;;;;6215427;23;20177;-70
2023/05/12 03:00:41;;;;;;;21.17;16.30;;;12.00;99.90;;;;;;6197347;23;20208;-70
2023/05/12 03:03:08;;;;;;;20.63;15.75;;;12.00;99.90;;;;;;6210224;23;20173;-70
2023/05/12 03:05:34;;;;;;;22.77;15.77;;;12.00;99.90;;;;;;6216963;23;20242;-69
2023/05/12 03:08:01;;;;;;;21.13;16.13;;;12.00;99.90;;;;;;6217422;22;20215;-70
2023/05/12 03:10:29;;;;;;;22.15;17.13;;;12.00;99.90;;;;;;6208221;23;20177;-70
2023/05/12 03:12:56;;;;;;;24.90;16.77;;;12.10;99.90;;;;;;6219208;23;20173;-70
2023/05/12 03:15:23;;;;;;;20.55;15.70;;;12.00;99.90;;;;;;6196372;23;20173;-70
2023/05/12 03:17:50;;;;;;;23.67;16.10;;;12.10;99.90;;;;;;6214634;23;20181;-70
2023/05/12 03:20:17;;;;;;;22.20;16.58;;;12.10;99.90;;;;;;6211596;23;20184;-70
2023/05/12 03:22:44;;;;;;;25.20;16.92;;;12.10;99.90;;;;;;6233791;22;20813;-70
2023/05/12 03:25:12;;;;;;;25.27;17.63;;;12.10;99.90;;;;;;6240363;22;20588;-70
2023/05/12 03:27:40;;;;;;;26.27;16.92;;;12.10;99.90;;;;;;6251121;22;20204;-70
2023/05/12 03:30:08;;;;;;;26.23;17.70;;;12.10;99.90;;;;;;6244047;22;20207;-70
2023/05/12 03:32:37;;;;;;;20.35;15.75;;;12.10;99.90;;;;;;6234114;22;20974;-70
2023/05/12 03:35:05;;;;;;;26.52;18.38;;;12.10;99.90;;;;;;6243829;22;21245;-70
2023/05/12 03:37:32;;;;;;;23.27;17.85;;;12.10;99.90;;;;;;6253114;22;20176;-70
2023/05/12 03:39:58;;;;;;;24.13;17.02;;;12.10;99.90;;;;;;6240843;22;20195;-70
2023/05/12 03:42:25;;;;;;;22.58;16.75;;;12.10;99.90;;;;;;6252312;22;20183;-70
2023/05/12 03:44:53;;;;;;;21.38;16.55;;;12.10;99.90;;;;;;6241845;22;20176;-70
2023/05/12 03:47:20;;;;;;;24.45;16.58;;;12.10;99.90;;;;;;6232717;22;20220;-70
2023/05/12 03:49:47;;;;;;;26.73;16.42;;;12.10;99.90;;;;;;6244229;22;20176;-70
2023/05/12 03:52:14;;;;;;;25.42;16.55;;;12.10;99.90;;;;;;6233864;22;20176;-70
2023/05/12 03:54:41;;;;;;;24.90;16.35;;;12.10;99.90;;;;;;6241189;22;20507;-70
2023/05/12 03:57:08;;;;;;;21.80;16.00;;;12.10;99.90;;;;;;6241579;22;20172;-70
2023/05/12 03:59:34;;;;;;;21.38;15.68;;;12.10;99.90;;;;;;6236420;22;20172;-70
2023/05/12 04:02:03;;;;;;;24.95;16.40;;;12.10;99.90;;;;;;6213170;22;20192;-70
2023/05/12 04:04:29;;;;;;;21.77;15.73;;;12.20;99.90;;;;;;6232725;22;20273;-70
2023/05/12 04:06:56;;;;;;;24.55;16.67;;;12.20;99.90;;;;;;6239226;22;20198;-70
2023/05/12 04:09:23;;;;;;;21.58;16.52;;;12.20;99.90;;;;;;6235760;22;20208;-70
2023/05/12 04:11:50;;;;;;;21.65;15.80;;;12.20;99.90;;;;;;6232484;22;20192;-70
2023/05/12 04:14:17;;;;;;;24.52;16.65;;;12.30;99.90;;;;;;6241068;22;20208;-70
2023/05/12 04:16:43;;;;;;;24.13;17.23;;;12.30;99.90;;;;;;6216777;22;20382;-70
2023/05/12 04:19:11;;;;;;;24.80;18.48;;;12.20;99.90;;;;;;6245929;22;20648;-70
2023/05/12 04:21:38;;;;;;;22.85;18.05;;;12.20;99.90;;;;;;6233880;22;20551;-70
2023/05/12 04:24:05;;;;;;;25.38;18.70;;;12.20;99.90;;;;;;6241785;22;20196;-70
2023/05/12 04:26:32;;;;;;;27.08;18.60;;;12.20;99.90;;;;;;6240039;22;20176;-70
2023/05/12 04:28:59;;;;;;;23.00;17.30;;;12.20;99.90;;;;;;6236131;22;20214;-70
2023/05/12 04:31:26;;;;;;;29.73;17.48;;;12.20;99.90;;;;;;6240394;22;20247;-70
2023/05/12 04:33:54;;;;;;;29.00;17.60;;;12.30;99.90;;;;;;6222832;22;20187;-70
2023/05/12 04:36:22;;;;;;;24.40;17.90;;;12.30;99.90;;;;;;6235638;22;20191;-70
2023/05/12 04:38:49;;;;;;;26.08;18.23;;;12.30;99.90;;;;;;6244151;22;20196;-70
2023/05/12 04:41:16;;;;;;;23.70;17.75;;;12.20;99.90;;;;;;6238360;22;20176;-70
2023/05/12 04:43:43;;;;;;;24.35;18.10;;;12.30;99.90;;;;;;6247254;22;20740;-70
2023/05/12 04:46:09;;;;;;;25.48;18.08;;;12.30;99.90;;;;;;6244564;22;20203;-70
2023/05/12 04:48:40;;;;;;;26.15;18.25;;;12.30;99.90;;;;;;6221858;22;20231;-70
2023/05/12 04:51:07;;;;;;;24.63;18.60;;;12.40;99.90;;;;;;6240260;22;20192;-70
2023/05/12 04:53:36;;;;;;;26.63;18.13;;;12.40;99.90;;;;;;6231423;22;20192;-70
2023/05/12 04:56:03;;;;;;;26.77;18.92;;;12.40;99.90;;;;;;6246719;22;20176;-70
2023/05/12 04:58:30;;;;;;;28.67;19.70;;;12.50;99.90;;;;;;6225408;22;20876;-70
2023/05/12 05:00:57;;;;;;;31.08;19.65;;;12.40;99.90;;;;;;6234932;22;20203;-70
2023/05/12 05:03:24;;;;;;;25.75;18.38;;;12.40;99.90;;;;;;6212908;22;20199;-70
2023/05/12 05:05:51;;;;;;;22.38;17.23;;;12.50;99.90;;;;;;6247005;22;20228;-70
2023/05/12 05:08:18;;;;;;;25.67;18.27;;;12.50;99.90;;;;;;6228852;22;20203;-70
2023/05/12 05:10:46;;;;;;;23.60;17.17;;;12.50;99.90;;;;;;6235373;22;20196;-70
2023/05/12 05:13:12;;;;;;;25.10;18.33;;;12.50;99.90;;;;;;6232446;22;20187;-70
2023/05/12 05:15:39;;;;;;;21.70;17.02;;;12.50;99.90;;;;;;6224998;22;20196;-70
2023/05/12 05:18:06;;;;;;;28.55;17.83;;;12.60;99.90;;;;;;6236085;22;20196;-70
2023/05/12 05:20:33;;;;;;;25.98;17.33;;;12.60;99.90;;;;;;6228534;22;20203;-70
2023/05/12 05:23:00;;;;;;;22.42;16.67;;;12.60;99.90;;;;;;6239755;22;20390;-70
2023/05/12 05:25:27;;;;;;;23.25;17.00;;;12.60;99.90;;;;;;6246971;22;20172;-70
2023/05/12 05:27:55;;;;;;;26.05;16.70;;;12.60;99.90;;;;;;6234848;22;20464;-70
2023/05/12 05:30:22;;;;;;;22.38;16.63;;;12.60;99.90;;;;;;6248511;22;20177;-70
2023/05/12 05:32:49;;;;;;;21.65;16.63;;;12.60;99.90;;;;;;6235141;22;20183;-70
2023/05/12 05:35:16;;;;;;;22.17;16.10;;;12.70;99.90;;;;;;6218532;22;20219;-70
2023/05/12 05:37:43;;;;;;;22.02;16.90;;;12.70;99.90;;;;;;6237017;22;20285;-70
2023/05/12 05:40:10;;;;;;;20.20;15.52;;;12.70;99.90;;;;;;6237839;22;20230;-70
2023/05/12 05:42:37;;;;;;;18.63;14.90;;;12.70;99.90;;;;;;6237818;22;20637;-70
2023/05/12 05:45:06;;;;;;;23.88;17.08;;;12.80;99.90;;;;;;6236584;22;20192;-70
2023/05/12 05:47:33;;;;;;;19.35;15.90;;;12.80;99.90;;;;;;6230229;22;20193;-70
2023/05/12 05:50:00;;;;;;;21.85;15.20;;;12.80;99.90;;;;;;6206127;22;20289;-70
2023/05/12 05:52:26;;;;;;;20.83;15.38;;;12.90;99.90;;;;;;6236293;22;20182;-69
2023/05/12 05:54:53;;;;;;;20.13;15.13;;;12.90;99.90;;;;;;6228305;22;20179;-68
2023/05/12 05:57:20;;;;;;;20.58;14.82;;;12.90;99.90;;;;;;6235544;22;20303;-69
2023/05/12 05:59:47;;;;;;;18.98;13.77;;;13.00;99.90;;;;;;6240077;22;20176;-70
2023/05/12 06:02:15;;;;;;;19.92;14.43;;;13.00;99.90;;;;;;6229017;22;20436;-70
2023/05/12 06:04:42;;;;;;;18.05;14.13;;;13.00;99.90;;;;;;6234876;22;20203;-69
2023/05/12 06:07:09;;;;;;;19.40;14.65;;;13.10;99.90;;;;;;6199908;22;21227;-70
2023/05/12 06:09:35;;;;;;;16.15;13.23;;;13.10;99.90;;;;;;6237994;22;20498;-70
2023/05/12 06:12:02;;;;;;;19.27;13.38;;;13.10;99.90;;;;;;6237966;22;20183;-70
2023/05/12 06:14:29;;;;;;;16.42;12.73;;;13.20;99.90;;;;;;6245892;22;20192;-70
2023/05/12 06:16:56;;;;;;;15.77;11.75;;;13.20;99.90;;;;;;6235691;22;20176;-70
2023/05/12 06:19:24;;;;;;;16.77;12.65;;;13.30;99.90;;;;;;6230233;22;20181;-70
2023/05/12 06:21:52;;;;;;;13.70;11.43;;;13.30;99.90;;;;;;6224850;22;20307;-69
2023/05/12 06:24:19;;;;;;;12.13;10.68;;;13.30;99.90;;;;;;6234958;22;20624;-69
2023/05/12 06:26:46;;;;;;;13.38;10.85;;;13.30;99.90;;;;;;6246172;22;20182;-69
2023/05/12 06:29:14;;;;;;;13.52;12.07;;;13.30;99.90;;;;;;6238222;22;20208;-70
2023/05/12 06:31:40;;;;;;;13.68;12.15;;;13.40;99.90;;;;;;6241069;22;20175;-70
2023/05/12 06:34:07;;;;;;;13.07;11.65;;;13.40;99.90;;;;;;6236993;22;20179;-70
2023/05/12 06:36:35;;;;;;;15.80;11.07;;;13.50;99.90;;;;;;6226443;22;20211;-70
2023/05/12 06:39:03;;;;;;;13.00;11.20;;;13.50;99.90;;;;;;6239067;22;20183;-70
2023/05/12 06:41:30;;;;;;;14.43;12.07;;;13.50;99.90;;;;;;6246766;22;20375;-70
2023/05/12 06:43:59;;;;;;;14.25;11.30;;;13.50;99.90;;;;;;6242141;22;20254;-70
2023/05/12 06:46:25;;;;;;;13.90;11.52;;;13.50;99.90;;;;;;6236882;22;20632;-70
2023/05/12 06:48:54;;;;;;;14.20;10.88;;;13.60;99.90;;;;;;6242335;22;20204;-70
2023/05/12 06:51:21;;;;;;;12.73;10.43;;;13.50;99.90;;;;;;6236625;22;20172;-70
2023/05/12 06:53:49;;;;;;;11.20;9.75;;;13.60;99.90;;;;;;6222823;22;20180;-70
2023/05/12 06:56:16;;;;;;;11.40;10.10;;;13.60;99.90;;;;;;6246238;22;20698;-70
2023/05/12 06:58:43;;;;;;;11.63;10.40;;;13.60;99.90;;;;;;6230394;22;20182;-70
2023/05/12 07:01:10;;;;;;;13.00;10.35;;;13.70;99.90;;;;;;6243045;22;20543;-69
2023/05/12 07:03:37;;;;;;;10.25;8.85;;;13.70;99.90;;;;;;6240013;22;20176;-70
2023/05/12 07:06:03;;;;;;;11.35;9.57;;;13.90;99.90;;;;;;6226223;22;20176;-70
2023/05/12 07:08:30;;;;;;;11.52;9.50;;;13.90;99.90;;;;;;6224762;22;20504;-70
2023/05/12 07:10:59;;;;;;;10.85;8.93;;;14.00;99.90;;;;;;6239169;22;20176;-70
2023/05/12 07:13:26;;;;;;;12.05;8.85;;;14.00;99.90;;;;;;6245957;22;21115;-70
2023/05/12 07:15:53;;;;;;;12.35;9.65;;;14.10;99.90;;;;;;6238132;22;20686;-70
2023/05/12 07:18:20;;;;;;;10.77;9.10;;;14.10;99.90;;;;;;6231820;22;20476;-70
2023/05/12 07:20:47;;;;;;;10.40;8.88;;;14.20;99.90;;;;;;6241212;22;20176;-69
2023/05/12 07:23:15;;;;;;;11.85;9.30;;;14.20;99.90;;;;;;6233211;22;20282;-70
2023/05/12 07:25:42;;;;;;;9.38;8.32;;;14.30;99.90;;;;;;6219036;22;20200;-70
2023/05/12 07:28:10;;;;;;;12.23;8.80;;;14.40;99.90;;;;;;6240127;22;20178;-70
2023/05/12 07:30:37;;;;;;;11.45;9.05;;;14.50;99.90;;;;;;6237150;22;20226;-70
2023/05/12 07:33:04;;;;;;;12.13;8.57;;;14.70;99.90;;;;;;6235948;22;20200;-70
2023/05/12 07:35:31;;;;;;;12.10;8.45;;;14.80;99.90;;;;;;6228509;22;20420;-70
2023/05/12 07:37:58;;;;;;;12.75;7.93;;;14.90;99.90;;;;;;6224673;22;20250;-70
2023/05/12 07:40:24;;;;;;;9.65;7.68;;;14.90;99.90;;;;;;6221131;22;20184;-70
2023/05/12 07:42:51;;;;;;;12.30;7.80;;;14.90;99.90;;;;;;6228343;22;20441;-70
2023/05/12 07:45:21;;;;;;;10.32;8.13;;;14.90;99.90;;;;;;6235401;22;20179;-70
2023/05/12 07:47:50;;;;;;;10.38;7.43;;;15.00;99.90;;;;;;6234428;22;20409;-70
2023/05/12 07:50:17;;;;;;;8.45;6.82;;;15.00;99.90;;;;;;6237174;22;20266;-70
2023/05/12 07:52:48;;;;;;;8.82;6.65;;;15.10;99.90;;;;;;6227843;22;20317;-70
2023/05/12 07:55:15;;;;;;;8.05;6.18;;;15.10;99.90;;;;;;6229296;22;20176;-70
2023/05/12 07:57:42;;;;;;;9.50;6.75;;;15.20;99.90;;;;;;6233805;22;20187;-70
2023/05/12 08:00:10;;;;;;;8.10;6.72;;;15.40;99.90;;;;;;6231849;22;20424;-70
2023/05/12 08:02:39;;;;;;;12.32;6.20;;;15.50;99.90;;;;;;6240604;22;20525;-70
2023/05/12 08:05:07;;;;;;;11.20;6.97;;;15.50;99.90;;;;;;6243172;22;20176;-70
2023/05/12 08:07:34;;;;;;;7.20;6.50;;;15.60;99.90;;;;;;6223463;22;20202;-70
2023/05/12 08:10:01;;;;;;;10.05;6.25;;;15.60;99.90;;;;;;6226986;22;20671;-70
2023/05/12 08:12:28;;;;;;;11.15;5.80;;;15.70;99.90;;;;;;6234018;22;20249;-70
2023/05/12 08:14:55;;;;;;;5.53;4.90;;;15.80;98.40;;;;;;6228296;22;20602;-70
2023/05/12 08:17:21;;;;;;;7.22;4.95;;;15.80;73.10;;;;;;6243956;22;20172;-70
2023/05/12 08:19:50;;;;;;;9.10;5.10;;;15.80;61.70;;;;;;6243801;22;20488;-70
2023/05/12 08:22:16;;;;;;;5.30;4.80;;;15.90;56.00;;;;;;6236403;22;20200;-70
2023/05/12 08:24:43;;;;;;;5.78;4.70;;;15.90;48.70;;;;;;6235937;22;20176;-70
2023/05/12 08:27:10;;;;;;;5.72;5.03;;;16.00;41.90;;;;;;6216975;22;20372;-70
2023/05/12 08:29:37;;;;;;;5.20;4.70;;;16.00;37.40;;;;;;6234190;22;20287;-70
2023/05/12 08:32:04;;;;;;;5.35;4.85;;;16.20;40.50;;;;;;6237410;22;20183;-70
2023/05/12 08:34:31;;;;;;;5.88;5.38;;;16.30;36.80;;;;;;6244078;22;20172;-70
2023/05/12 08:37:00;;;;;;;9.35;5.70;;;16.40;43.10;;;;;;6244967;22;20172;-70
2023/05/12 08:39:29;;;;;;;8.10;5.80;;;16.50;50.60;;;;;;6228155;22;20409;-70
2023/05/12 08:42:09;;;;;;;5.60;5.10;;;16.50;48.50;;;;;;6230037;22;20459;-70
2023/05/12 08:44:37;;;;;;;9.35;5.05;;;16.60;47.00;;;;;;6238313;22;20176;-70
2023/05/12 08:47:05;;;;;;;5.53;4.90;;;16.70;47.40;;;;;;6239610;22;20183;-70
2023/05/12 08:49:34;;;;;;;8.40;5.63;;;16.70;43.30;;;;;;6242704;22;20406;-70
2023/05/12 08:52:03;;;;;;;6.00;5.40;;;16.70;46.00;;;;;;6242815;22;20203;-70
2023/05/12 08:54:30;;;;;;;8.25;6.18;;;16.70;40.00;;;;;;6230088;22;20631;-70
2023/05/12 08:56:57;;;;;;;6.53;5.30;;;16.70;27.60;;;;;;6224388;22;20765;-70
2023/05/12 08:59:24;;;;;;;7.25;5.55;;;16.80;23.60;;;;;;6245355;22;20182;-70
2023/05/12 09:01:52;;;;;;;7.03;5.20;;;16.90;12.30;;;;;;6232950;22;20424;-70
2023/05/12 09:04:19;;;;;;;6.80;5.10;;;17.00;23.50;;;;;;6246866;22;20176;-70
2023/05/12 09:06:46;;;;;;;15.38;6.47;;;17.20;7.70;;;;;;6243245;22;20789;-69
2023/05/12 09:09:16;;;;;;;6.35;5.28;;;17.20;1.00;;;;;;6238474;22;20207;-70
2023/05/12 09:11:43;;;;;;;6.55;5.45;;;17.30;4.00;;;;;;6233972;22;20172;-70
2023/05/12 09:14:15;;;;;;;9.80;6.20;;;17.40;5.80;;;;;;6229030;22;20183;-70
2023/05/12 09:16:44;;;;;;;12.05;5.57;;;17.40;1.00;;;;;;6234205;22;20172;-70
2023/05/12 09:19:11;;;;;;;5.80;5.20;;;17.50;1.00;;;;;;6232663;22;20671;-70
2023/05/12 09:21:38;;;;;;;9.05;5.43;;;17.50;1.00;;;;;;6234988;22;20172;-70
2023/05/12 09:24:07;;;;;;;5.18;4.35;;;17.60;1.00;;;;;;6241158;22;20202;-70
2023/05/12 09:26:47;;;;;;;4.63;4.13;;;17.70;1.00;;;;;;6228350;22;20191;-70
2023/05/12 09:29:13;;;;;;;4.82;4.43;;;17.80;1.00;;;;;;6228448;22;20207;-70
2023/05/12 09:31:49;;;;;;;4.85;4.25;;;17.90;1.00;;;;;;6238984;22;20384;-70
2023/05/12 09:34:16;;;;;;;4.18;3.83;;;17.80;1.00;;;;;;6241022;22;20180;-70
2023/05/12 09:36:44;;;;;;;8.15;5.05;;;17.80;1.00;;;;;;6234493;22;20172;-70
2023/05/12 09:39:12;;;;;;;4.68;4.25;;;18.00;1.00;;;;;;6236632;22;20644;-70
2023/05/12 09:41:40;;;;;;;6.97;4.28;;;18.10;1.00;;;;;;6224709;22;20172;-70
2023/05/12 09:44:09;;;;;;;5.80;4.80;;;18.00;1.00;;;;;;6226420;22;20519;-70
2023/05/12 09:46:37;;;;;;;4.30;3.90;;;18.00;1.00;;;;;;6247159;22;20691;-70
2023/05/12 09:49:04;;;;;;;5.53;3.60;;;18.00;1.00;;;;;;6232243;22;20663;-69
2023/05/12 09:51:31;;;;;;;6.47;3.92;;;18.00;1.00;;;;;;6249513;22;20183;-70
2023/05/12 09:53:58;;;;;;;4.20;3.80;;;18.10;1.00;;;;;;6228191;22;20172;-70
2023/05/12 09:56:27;;;;;;;4.30;3.58;;;18.20;1.00;;;;;;6232393;22;20176;-69
2023/05/12 09:58:56;;;;;;;3.67;3.25;;;18.20;1.00;;;;;;6244111;22;20608;-70
2023/05/12 10:01:25;;;;;;;5.93;3.55;;;18.30;1.00;;;;;;6229655;22;20187;-70
2023/05/12 10:03:54;;;;;;;3.75;3.20;;;18.40;1.00;;;;;;6239739;22;20172;-70
2023/05/12 10:06:24;;;;;;;4.20;3.28;;;18.50;1.00;;;;;;6250113;22;20199;-69
2023/05/12 10:08:54;;;;;;;5.00;3.80;;;18.60;1.00;;;;;;6236559;22;20521;-70
2023/05/12 10:11:22;;;;;;;6.25;3.90;;;18.60;1.00;;;;;;6230596;22;20262;-70
2023/05/12 10:13:50;;;;;;;3.97;3.58;;;18.70;1.00;;;;;;6234451;22;20200;-70
2023/05/12 10:16:17;;;;;;;5.82;3.60;;;18.80;1.00;;;;;;6225206;22;20384;-70
2023/05/12 10:18:46;;;;;;;3.33;2.97;;;18.70;99.90;;;;;;6244769;22;20185;-70
2023/05/12 10:21:13;;;;;;;7.28;3.60;;;18.60;99.90;;;;;;6236022;22;20851;-69
2023/05/12 10:23:41;;;;;;;5.38;3.35;;;18.70;99.90;;;;;;6234435;22;20231;-69
2023/05/12 10:26:10;;;;;;;5.63;3.70;;;18.70;99.90;;;;;;6233963;22;20337;-69
2023/05/12 10:28:37;;;;;;;3.30;3.00;;;18.70;99.90;;;;;;6240486;22;20176;-69
2023/05/12 10:31:06;;;;;;;3.33;2.80;;;18.80;99.90;;;;;;6243236;22;20230;-69
2023/05/12 10:33:33;;;;;;;5.10;3.25;;;18.80;99.90;;;;;;6229873;22;20665;-69
2023/05/12 10:36:02;;;;;;;4.03;3.50;;;18.80;99.90;;;;;;6232873;22;20176;-69
2023/05/12 10:38:36;;;;;;;5.35;3.28;;;18.90;99.90;;;;;;6238490;22;20274;-69
2023/05/12 10:41:06;;;;;;;7.18;3.65;;;18.80;99.90;;;;;;6238651;22;20175;-70
2023/05/12 10:43:39;;;;;;;6.13;3.85;;;18.90;99.90;;;;;;6224255;22;20860;-69
2023/05/12 10:46:07;;;;;;;5.45;3.65;;;18.90;99.90;;;;;;6245713;22;20727;-68
2023/05/12 10:48:34;;;;;;;3.35;3.05;;;19.00;99.90;;;;;;6225496;22;20237;-69
2023/05/12 10:51:08;;;;;;;11.77;3.70;;;19.10;99.90;;;;;;6232453;22;20694;-68
2023/05/12 10:53:35;;;;;;;5.38;3.42;;;19.10;99.90;;;;;;6231079;22;20199;-68
2023/05/12 10:56:04;;;;;;;5.78;3.60;;;19.20;99.90;;;;;;6247273;22;20225;-68
2023/05/12 10:58:31;;;;;;;3.42;3.13;;;19.30;99.90;;;;;;6221189;22;20176;-68
2023/05/12 11:01:06;;;;;;;7.32;3.67;;;19.30;99.90;;;;;;6238556;22;20196;-68
2023/05/12 11:03:34;;;;;;;2.92;2.63;;;19.30;99.90;;;;;;6219362;22;20206;-69
2023/05/12 11:06:01;;;;;;;3.60;3.03;;;19.40;99.90;;;;;;6233702;22;20480;-69
2023/05/12 11:08:33;;;;;;;4.13;2.97;;;19.50;99.90;;;;;;6222807;22;20195;-68
2023/05/12 11:11:00;;;;;;;3.97;2.92;;;19.50;99.90;;;;;;6242670;22;20576;-69
2023/05/12 11:13:28;;;;;;;6.70;3.08;;;19.50;99.90;;;;;;6226108;22;20703;-70
2023/05/12 11:15:56;;;;;;;3.33;2.85;;;19.60;99.90;;;;;;6237006;22;21071;-68
2023/05/12 11:18:24;;;;;;;4.15;3.08;;;19.70;99.90;;;;;;6238608;22;20202;-69
2023/05/12 11:20:51;;;;;;;3.47;3.17;;;19.60;99.90;;;;;;6231354;22;20254;-68
2023/05/12 11:23:26;;;;;;;5.90;3.80;;;19.60;99.90;;;;;;6235080;22;20204;-68
2023/05/12 11:25:54;;;;;;;3.75;3.15;;;19.60;99.90;;;;;;6239267;22;20850;-68
2023/05/12 11:28:21;;;;;;;8.10;3.50;;;19.60;99.90;;;;;;6226500;22;20207;-69
2023/05/12 11:30:51;;;;;;;6.32;3.33;;;19.60;99.90;;;;;;6231363;22;20208;-69
2023/05/12 11:33:21;;;;;;;7.22;3.00;;;19.60;99.90;;;;;;6242246;22;20179;-67
2023/05/12 11:35:49;;;;;;;6.82;3.10;;;19.60;99.90;;;;;;6221301;22;20191;-67
2023/05/12 11:38:17;;;;;;;5.82;3.55;;;19.60;99.90;;;;;;6237517;22;20180;-68
2023/05/12 11:40:44;;;;;;;6.50;3.30;;;19.60;99.90;;;;;;6238298;22;20172;-67
2023/05/12 11:43:13;;;;;;;4.68;3.00;;;19.80;99.90;;;;;;6223559;22;20642;-67
2023/05/12 11:45:40;;;;;;;3.28;2.97;;;19.80;99.90;;;;;;6232966;22;20662;-67
2023/05/12 11:48:08;;;;;;;6.78;3.47;;;19.80;99.90;;;;;;6243696;22;20421;-67
2023/05/12 11:50:38;;;;;;;5.38;3.35;;;19.90;99.90;;;;;;6210245;22;20450;-69
2023/05/12 11:53:05;;;;;;;4.75;3.42;;;19.90;99.90;;;;;;6229966;22;20204;-67
2023/05/12 11:55:32;;;;;;;3.10;2.80;;;20.00;99.90;;;;;;6233453;22;20196;-67
2023/05/12 11:58:01;;;;;;;6.07;3.42;;;20.00;99.90;;;;;;6235496;22;20172;-67
2023/05/12 12:00:32;;;;;;;4.70;3.47;;;19.90;99.90;;;;;;6234696;22;20728;-67
2023/05/12 12:03:06;;;;;;;2.90;2.70;;;19.80;99.90;;;;;;6246918;22;20184;-67
2023/05/12 12:05:33;;;;;;;2.85;2.65;;;19.90;99.90;;;;;;6234703;22;20196;-67
2023/05/12 12:08:06;;;;;;;5.65;3.38;;;20.00;99.90;;;;;;6236087;22;20211;-67
2023/05/12 12:10:32;;;;;;;8.18;2.85;;;19.90;99.90;;;;;;6239697;22;20208;-67
2023/05/12 12:13:00;;;;;;;3.58;3.15;;;19.80;99.90;;;;;;6247013;22;20428;-67
2023/05/12 12:15:27;;;;;;;5.43;3.15;;;19.90;99.90;;;;;;6242437;22;20754;-67
2023/05/12 12:17:56;;;;;;;13.10;3.47;;;19.90;99.90;;;;;;6252504;22;20192;-67
2023/05/12 12:20:23;;;;;;;4.85;2.67;;;19.90;99.90;;;;;;6230124;22;20533;-67
2023/05/12 12:22:50;;;;;;;3.97;2.72;;;19.90;99.90;;;;;;6240280;22;20294;-67
2023/05/12 12:25:18;;;;;;;3.85;2.83;;;19.90;99.90;;;;;;6237955;22;20192;-67
2023/05/12 12:27:45;;;;;;;3.45;2.90;;;19.90;99.90;;;;;;6240569;22;20734;-67
2023/05/12 12:30:13;;;;;;;6.18;3.03;;;20.00;99.90;;;;;;6238524;22;20204;-68
2023/05/12 12:32:40;;;;;;;3.75;2.97;;;20.20;99.90;;;;;;6253222;22;20646;-67
2023/05/12 12:35:10;;;;;;;4.05;2.95;;;20.30;99.90;;;;;;6245257;22;20247;-67
2023/05/12 12:37:37;;;;;;;3.28;2.58;;;20.40;99.90;;;;;;6225343;22;20202;-67